Time;durP1;ratioP1;P1;durP2;ratioP2;P2;SDS_P1;SDS_P2;PMS_P1;PMS_P2;Temp;Humidity;BMP_temperature;BMP_pressure;BME280_temperature;BME280_humidity;BME280_pressure;Samples;Min_cycle;Max_cycle;Signal;HPM_P1;HPM_P2
2023/01/01 00:01:59;;;;;;;9.33;3.67;;;;;;;;;;5054436;28;20465;-74
2023/01/01 00:04:28;;;;;;;6.40;2.80;;;;;;;;;;5063638;28;20464;-74
2023/01/01 00:06:58;;;;;;;6.90;3.53;;;;;;;;;;5075762;28;20539;-74
2023/01/01 00:12:11;;;;;;;12.90;2.80;;;;;;;;;;5058994;28;20599;-75
2023/01/01 00:14:43;;;;;;;8.10;2.50;;;;;;;;;;5054642;28;20453;-74
2023/01/01 00:17:14;;;;;;;10.20;2.70;;;;;;;;;;5055489;28;20485;-74
2023/01/01 00:19:43;;;;;;;6.73;2.63;;;;;;;;;;5057306;28;20559;-74
2023/01/01 00:22:12;;;;;;;7.47;2.53;;;;;;;;;;5068653;28;20472;-74
2023/01/01 00:24:43;;;;;;;10.30;4.83;;;;;;;;;;5062447;28;20477;-76
2023/01/01 00:27:12;;;;;;;5.70;2.50;;;;;;;;;;5055881;28;20485;-75
2023/01/01 00:29:39;;;;;;;3.97;2.00;;;;;;;;;;5055200;28;20461;-74
2023/01/01 00:32:08;;;;;;;5.80;2.50;;;;;;;;;;5055915;28;20457;-75
2023/01/01 00:34:36;;;;;;;6.80;3.23;;;;;;;;;;5057896;28;20889;-74
2023/01/01 00:37:05;;;;;;;6.77;3.40;;;;;;;;;;5055277;28;20464;-74
2023/01/01 00:39:33;;;;;;;9.50;2.70;;;;;;;;;;5055582;28;20465;-74
2023/01/01 00:42:08;;;;;;;6.83;2.87;;;;;;;;;;5056365;28;20540;-74
2023/01/01 00:44:41;;;;;;;10.00;2.60;;;;;;;;;;5055581;28;20460;-74
2023/01/01 00:47:10;;;;;;;7.47;2.23;;;;;;;;;;5055867;28;20563;-74
2023/01/01 00:49:38;;;;;;;10.00;2.57;;;;;;;;;;5055621;28;20777;-74
2023/01/01 00:52:07;;;;;;;3.87;1.90;;;;;;;;;;5055509;28;20457;-74
2023/01/01 00:54:35;;;;;;;9.27;3.10;;;;;;;;;;5054771;28;20465;-74
2023/01/01 00:57:03;;;;;;;14.33;3.60;;;;;;;;;;5056112;28;20453;-74
2023/01/01 00:59:30;;;;;;;6.87;3.03;;;;;;;;;;5056400;28;20467;-74
2023/01/01 01:01:58;;;;;;;7.30;2.80;;;;;;;;;;5055428;28;20664;-74
2023/01/01 01:04:26;;;;;;;5.73;2.70;;;;;;;;;;5069730;28;20536;-74
2023/01/01 01:06:54;;;;;;;7.63;3.37;;;;;;;;;;5074592;28;20440;-74
2023/01/01 01:09:25;;;;;;;5.80;2.33;;;;;;;;;;5075813;28;21052;-74
2023/01/01 01:11:54;;;;;;;8.57;2.30;;;;;;;;;;5076409;28;20457;-74
2023/01/01 01:14:22;;;;;;;12.77;3.07;;;;;;;;;;5067946;28;20456;-74
2023/01/01 01:16:50;;;;;;;7.93;2.90;;;;;;;;;;5061483;28;20449;-75
2023/01/01 01:19:18;;;;;;;10.67;2.40;;;;;;;;;;5055407;28;20457;-75
2023/01/01 01:21:47;;;;;;;7.87;2.20;;;;;;;;;;5068783;28;20461;-74
2023/01/01 01:24:14;;;;;;;6.80;2.63;;;;;;;;;;5056483;28;20523;-74
2023/01/01 01:26:43;;;;;;;9.23;3.00;;;;;;;;;;5055048;28;20523;-73
2023/01/01 01:29:11;;;;;;;6.23;2.20;;;;;;;;;;5055067;28;20504;-74
2023/01/01 01:31:39;;;;;;;4.60;1.90;;;;;;;;;;5054839;28;20469;-75
2023/01/01 01:34:07;;;;;;;7.30;2.17;;;;;;;;;;5055400;28;20541;-74
2023/01/01 01:36:41;;;;;;;8.80;2.40;;;;;;;;;;5055552;28;20564;-73
2023/01/01 01:39:11;;;;;;;6.37;2.90;;;;;;;;;;5055744;28;20457;-74
2023/01/01 01:41:39;;;;;;;7.17;2.90;;;;;;;;;;5057449;28;20460;-74
2023/01/01 01:44:22;;;;;;;8.50;2.83;;;;;;;;;;5075289;28;20449;-74
2023/01/01 01:46:54;;;;;;;9.80;2.50;;;;;;;;;;5078881;28;20487;-74
2023/01/01 01:49:25;;;;;;;6.37;3.77;;;;;;;;;;5074716;28;20480;-72
2023/01/01 01:51:52;;;;;;;9.03;2.70;;;;;;;;;;5062503;28;20454;-74
2023/01/01 01:54:23;;;;;;;8.83;2.83;;;;;;;;;;5059095;28;20466;-74
2023/01/01 01:56:58;;;;;;;9.27;2.90;;;;;;;;;;5060814;28;20457;-72
2023/01/01 01:59:28;;;;;;;7.00;2.87;;;;;;;;;;5075596;28;20457;-74
2023/01/01 02:01:57;;;;;;;6.23;2.53;;;;;;;;;;5058992;28;20453;-74
2023/01/01 02:04:25;;;;;;;6.07;2.70;;;;;;;;;;5073947;28;20754;-74
2023/01/01 02:06:56;;;;;;;14.67;3.43;;;;;;;;;;5079131;28;20448;-75
2023/01/01 02:09:27;;;;;;;7.10;2.40;;;;;;;;;;5078961;28;20484;-75
2023/01/01 02:12:00;;;;;;;3.60;2.10;;;;;;;;;;5079314;28;20792;-75
2023/01/01 02:14:28;;;;;;;6.53;4.10;;;;;;;;;;5069954;28;20446;-73
2023/01/01 02:16:59;;;;;;;5.60;2.10;;;;;;;;;;5057913;28;20542;-74
2023/01/01 02:19:32;;;;;;;13.90;3.10;;;;;;;;;;5062494;28;20454;-74
2023/01/01 02:22:09;;;;;;;9.63;3.03;;;;;;;;;;5078217;28;20537;-73
2023/01/01 02:24:57;;;;;;;3.97;2.17;;;;;;;;;;5065886;28;20465;-74
2023/01/01 02:27:31;;;;;;;9.07;3.70;;;;;;;;;;5051779;28;20463;-74
2023/01/01 02:30:04;;;;;;;8.80;2.57;;;;;;;;;;5057440;28;20476;-74
2023/01/01 02:32:33;;;;;;;7.13;3.10;;;;;;;;;;5058221;28;20796;-74
2023/01/01 02:35:33;;;;;;;6.93;3.17;;;;;;;;;;5057861;28;20465;-74
2023/01/01 02:37:52;;;;;;;3.70;2.40;;;;;;;;;;5076871;28;20551;-75
2023/01/01 02:40:20;;;;;;;3.40;1.70;;;;;;;;;;5077802;28;20460;-74
2023/01/01 02:42:48;;;;;;;8.90;2.60;;;;;;;;;;5078096;28;20453;-74
2023/01/01 02:45:18;;;;;;;10.90;3.50;;;;;;;;;;5077909;28;20476;-74
2023/01/01 02:47:45;;;;;;;10.70;2.60;;;;;;;;;;5077906;28;20453;-74
2023/01/01 02:50:15;;;;;;;6.37;2.50;;;;;;;;;;5077913;28;20530;-74
2023/01/01 02:52:50;;;;;;;6.57;3.30;;;;;;;;;;5077532;28;20445;-74
2023/01/01 02:55:25;;;;;;;3.37;1.70;;;;;;;;;;5077662;28;20468;-74
2023/01/01 03:00:17;;;;;;;6.73;2.93;;;;;;;;;;5077437;28;20452;-75
2023/01/01 03:00:48;;;;;;;4.67;2.43;;;;;;;;;;5076540;28;20915;-75
2023/01/01 03:03:20;;;;;;;3.97;1.83;;;;;;;;;;5076963;28;20457;-73
2023/01/01 03:08:45;;;;;;;5.27;2.33;;;;;;;;;;5057229;28;20504;-74
2023/01/01 03:11:16;;;;;;;6.73;2.40;;;;;;;;;;5056739;28;20461;-74
2023/01/01 03:13:51;;;;;;;7.23;2.10;;;;;;;;;;5057015;28;20456;-74
2023/01/01 03:16:33;;;;;;;7.70;2.80;;;;;;;;;;5057444;28;20728;-74
2023/01/01 03:19:14;;;;;;;4.27;2.30;;;;;;;;;;5056353;28;21032;-75
2023/01/01 03:21:43;;;;;;;8.57;3.27;;;;;;;;;;5056421;28;20862;-73
2023/01/01 03:24:12;;;;;;;5.00;2.90;;;;;;;;;;5057773;28;20481;-74
2023/01/01 03:26:41;;;;;;;10.90;3.03;;;;;;;;;;5057219;28;20845;-74
2023/01/01 03:29:11;;;;;;;6.63;2.77;;;;;;;;;;5057609;28;20897;-74
2023/01/01 03:31:41;;;;;;;6.70;2.30;;;;;;;;;;5057024;28;20462;-74
2023/01/01 03:34:13;;;;;;;7.70;2.90;;;;;;;;;;5056805;28;20546;-73
2023/01/01 03:36:43;;;;;;;198.10;181.60;;;;;;;;;;5056959;28;20249;-74
2023/01/01 03:39:13;;;;;;;124.07;115.23;;;;;;;;;;5056780;28;20750;-74
2023/01/01 03:41:43;;;;;;;6.40;3.03;;;;;;;;;;5057443;28;20462;-74
2023/01/01 03:44:14;;;;;;;6.73;2.90;;;;;;;;;;5057775;28;20453;-74
2023/01/01 03:46:46;;;;;;;94.63;88.23;;;;;;;;;;5057112;28;20453;-74
2023/01/01 03:49:15;;;;;;;8.00;2.53;;;;;;;;;;5057820;28;20492;-74
2023/01/01 03:51:55;;;;;;;9.63;3.03;;;;;;;;;;5060652;28;20858;-74
2023/01/01 03:54:29;;;;;;;7.53;3.20;;;;;;;;;;5057087;28;20453;-74
2023/01/01 03:57:00;;;;;;;8.37;3.20;;;;;;;;;;5057673;28;20453;-73
2023/01/01 03:59:30;;;;;;;5.53;3.20;;;;;;;;;;5056847;28;20476;-74
2023/01/01 04:02:01;;;;;;;9.07;3.03;;;;;;;;;;5057452;28;20457;-74
2023/01/01 04:04:29;;;;;;;3.93;2.43;;;;;;;;;;5056631;28;20456;-74
2023/01/01 04:06:58;;;;;;;10.43;3.30;;;;;;;;;;5067712;28;20749;-74
2023/01/01 04:09:30;;;;;;;5.73;3.23;;;;;;;;;;5076522;28;20475;-74
2023/01/01 04:12:04;;;;;;;7.40;2.80;;;;;;;;;;5082022;28;20724;-74
2023/01/01 04:14:33;;;;;;;9.27;3.43;;;;;;;;;;5076678;28;20472;-74
2023/01/01 04:17:03;;;;;;;9.57;3.27;;;;;;;;;;5072646;28;20457;-73
2023/01/01 04:19:31;;;;;;;7.47;3.30;;;;;;;;;;5077217;28;20456;-73
2023/01/01 04:21:59;;;;;;;8.47;3.27;;;;;;;;;;5074498;28;20551;-74
2023/01/01 04:24:33;;;;;;;5.30;3.27;;;;;;;;;;5089929;28;20464;-73
2023/01/01 04:27:19;;;;;;;6.70;3.40;;;;;;;;;;5082620;28;20558;-74
2023/01/01 04:29:47;;;;;;;5.23;3.17;;;;;;;;;;5058561;28;20509;-73
2023/01/01 04:32:16;;;;;;;14.43;10.47;;;;;;;;;;5075932;28;20456;-73
2023/01/01 04:34:44;;;;;;;8.93;4.03;;;;;;;;;;5076046;28;20457;-74
2023/01/01 04:37:11;;;;;;;15.13;3.40;;;;;;;;;;5068466;28;20845;-73
2023/01/01 04:39:39;;;;;;;10.00;3.57;;;;;;;;;;5056407;28;20508;-73
2023/01/01 04:42:06;;;;;;;9.43;4.00;;;;;;;;;;5065602;28;20454;-73
2023/01/01 04:44:34;;;;;;;12.50;5.17;;;;;;;;;;5056534;28;20943;-73
2023/01/01 04:47:01;;;;;;;11.47;3.83;;;;;;;;;;5057333;28;20455;-73
2023/01/01 04:49:30;;;;;;;10.03;3.87;;;;;;;;;;5056835;28;20485;-73
2023/01/01 04:51:58;;;;;;;8.50;3.73;;;;;;;;;;5055155;28;20445;-73
2023/01/01 04:54:29;;;;;;;7.90;3.67;;;;;;;;;;5056542;28;20456;-73
2023/01/01 04:56:56;;;;;;;13.43;4.47;;;;;;;;;;5074061;28;20935;-73
2023/01/01 04:59:24;;;;;;;11.67;4.10;;;;;;;;;;5073976;28;20456;-74
2023/01/01 05:01:51;;;;;;;133.70;123.00;;;;;;;;;;5056401;28;20449;-73
2023/01/01 05:04:19;;;;;;;97.30;90.37;;;;;;;;;;5055917;28;20454;-74
2023/01/01 05:06:48;;;;;;;11.10;5.87;;;;;;;;;;5060506;28;20457;-73
2023/01/01 05:09:16;;;;;;;8.27;3.90;;;;;;;;;;5056733;28;20503;-73
2023/01/01 05:11:43;;;;;;;169.83;152.70;;;;;;;;;;5056620;28;20460;-73
2023/01/01 05:14:11;;;;;;;7.70;4.80;;;;;;;;;;5056247;28;20536;-73
2023/01/01 05:16:40;;;;;;;44.00;4.73;;;;;;;;;;5061362;28;20464;-74
2023/01/01 05:19:16;;;;;;;9.50;5.10;;;;;;;;;;5060477;28;20537;-74
2023/01/01 05:21:44;;;;;;;116.97;108.57;;;;;;;;;;5060693;28;20919;-73
2023/01/01 05:24:17;;;;;;;9.90;4.23;;;;;;;;;;5058491;28;20461;-74
2023/01/01 05:26:46;;;;;;;12.20;4.90;;;;;;;;;;5060274;28;20467;-73
2023/01/01 05:29:13;;;;;;;6.03;3.97;;;;;;;;;;5059644;28;20512;-72
2023/01/01 05:31:41;;;;;;;5.87;3.67;;;;;;;;;;5059710;28;20457;-73
2023/01/01 05:34:09;;;;;;;5.20;4.10;;;;;;;;;;5060318;28;20468;-74
2023/01/01 05:36:37;;;;;;;10.57;5.40;;;;;;;;;;5078930;28;20498;-74
2023/01/01 05:39:05;;;;;;;9.43;4.80;;;;;;;;;;5080595;28;20521;-74
2023/01/01 05:41:36;;;;;;;8.63;4.63;;;;;;;;;;5080244;28;20919;-73
2023/01/01 05:44:04;;;;;;;8.70;4.53;;;;;;;;;;5080754;28;20451;-73
2023/01/01 05:46:31;;;;;;;12.00;4.90;;;;;;;;;;5080471;28;20559;-74
2023/01/01 05:48:59;;;;;;;15.30;5.90;;;;;;;;;;5080214;28;20923;-74
2023/01/01 05:51:28;;;;;;;17.10;4.60;;;;;;;;;;5079562;28;20468;-74
2023/01/01 05:53:56;;;;;;;8.10;4.40;;;;;;;;;;5073381;28;20453;-73
2023/01/01 05:56:24;;;;;;;6.87;4.17;;;;;;;;;;5065084;28;20465;-73
2023/01/01 05:58:53;;;;;;;7.53;4.30;;;;;;;;;;5061645;28;20864;-73
2023/01/01 06:01:21;;;;;;;10.13;4.53;;;;;;;;;;5071365;28;20452;-74
2023/01/01 06:03:52;;;;;;;11.30;5.37;;;;;;;;;;5080234;28;20460;-74
2023/01/01 06:06:21;;;;;;;8.47;4.83;;;;;;;;;;5079883;28;20461;-73
2023/01/01 06:08:52;;;;;;;6.83;3.80;;;;;;;;;;5080282;28;20886;-74
2023/01/01 06:11:19;;;;;;;7.93;4.13;;;;;;;;;;5075226;28;20453;-74
2023/01/01 06:13:52;;;;;;;6.90;4.10;;;;;;;;;;5059646;28;20524;-73
2023/01/01 06:16:21;;;;;;;7.77;3.53;;;;;;;;;;5059756;28;20483;-74
2023/01/01 06:18:49;;;;;;;9.80;4.20;;;;;;;;;;5059480;28;20458;-73
2023/01/01 06:21:17;;;;;;;7.57;4.07;;;;;;;;;;5059385;28;20480;-73
2023/01/01 06:23:45;;;;;;;127.97;117.83;;;;;;;;;;5058849;28;20462;-73
2023/01/01 06:26:21;;;;;;;8.20;3.70;;;;;;;;;;5058334;28;20468;-73
2023/01/01 06:28:49;;;;;;;8.63;3.37;;;;;;;;;;5065018;28;20456;-73
2023/01/01 06:31:17;;;;;;;9.07;7.43;;;;;;;;;;5079110;28;20787;-73
2023/01/01 06:33:47;;;;;;;7.33;2.87;;;;;;;;;;5078791;28;20459;-74
2023/01/01 06:36:16;;;;;;;5.00;2.57;;;;;;;;;;5078300;28;20467;-74
2023/01/01 06:38:44;;;;;;;6.67;3.17;;;;;;;;;;5078940;28;20445;-73
2023/01/01 06:41:13;;;;;;;10.57;2.80;;;;;;;;;;5079188;28;20475;-73
2023/01/01 06:43:40;;;;;;;5.00;2.67;;;;;;;;;;5078719;28;20560;-74
2023/01/01 06:46:09;;;;;;;56.57;53.10;;;;;;;;;;5078633;28;20472;-73
2023/01/01 06:48:37;;;;;;;5.07;2.83;;;;;;;;;;5078769;28;20463;-73
2023/01/01 06:51:10;;;;;;;16.47;15.23;;;;;;;;;;5078662;28;20533;-72
2023/01/01 06:53:38;;;;;;;6.77;3.20;;;;;;;;;;5078094;28;20453;-73
2023/01/01 06:56:06;;;;;;;10.63;2.67;;;;;;;;;;5058547;28;20471;-73
2023/01/01 06:58:35;;;;;;;7.80;2.60;;;;;;;;;;5078604;28;20444;-73
2023/01/01 07:01:06;;;;;;;12.10;11.40;;;;;;;;;;5078585;28;20468;-73
2023/01/01 07:03:34;;;;;;;9.67;2.50;;;;;;;;;;5078520;28;20456;-73
2023/01/01 07:06:01;;;;;;;7.83;2.33;;;;;;;;;;5078726;28;20471;-73
2023/01/01 07:08:33;;;;;;;3.97;2.20;;;;;;;;;;5078283;28;20464;-73
2023/01/01 07:11:01;;;;;;;5.53;2.10;;;;;;;;;;5078527;28;20495;-72
2023/01/01 07:13:29;;;;;;;3.53;1.70;;;;;;;;;;5073665;28;20467;-73
2023/01/01 07:15:57;;;;;;;3.23;1.40;;;;;;;;;;5078385;28;20510;-73
2023/01/01 07:18:25;;;;;;;2.60;1.33;;;;;;;;;;5065855;28;20469;-72
2023/01/01 07:20:54;;;;;;;55.37;52.37;;;;;;;;;;5058151;28;20508;-73
2023/01/01 07:23:21;;;;;;;2.43;1.50;;;;;;;;;;5058349;28;20469;-73
2023/01/01 07:25:51;;;;;;;4.33;2.07;;;;;;;;;;5057983;28;20453;-72
2023/01/01 07:28:19;;;;;;;8.73;1.97;;;;;;;;;;5058497;28;20469;-73
2023/01/01 07:30:46;;;;;;;4.80;1.17;;;;;;;;;;5058020;28;20493;-73
2023/01/01 07:33:15;;;;;;;4.67;1.37;;;;;;;;;;5058030;28;20842;-73
2023/01/01 07:35:44;;;;;;;2.37;1.27;;;;;;;;;;5058034;28;20933;-73
2023/01/01 07:38:13;;;;;;;71.30;67.33;;;;;;;;;;5058063;28;20472;-72
2023/01/01 07:40:40;;;;;;;5.43;1.80;;;;;;;;;;5057925;28;20881;-73
2023/01/01 07:43:11;;;;;;;4.50;1.63;;;;;;;;;;5057769;28;20734;-73
2023/01/01 07:45:38;;;;;;;2.40;1.20;;;;;;;;;;5062213;28;20467;-73
2023/01/01 07:48:06;;;;;;;5.70;1.70;;;;;;;;;;5078004;28;20622;-73
2023/01/01 07:50:37;;;;;;;4.27;1.20;;;;;;;;;;5077608;28;20488;-73
2023/01/01 07:53:05;;;;;;;3.30;1.47;;;;;;;;;;5077889;28;20962;-73
2023/01/01 07:55:35;;;;;;;5.33;1.53;;;;;;;;;;5072246;28;20952;-73
2023/01/01 07:58:03;;;;;;;4.50;1.40;;;;;;;;;;5075014;28;20531;-73
2023/01/01 08:00:32;;;;;;;2.77;0.90;;;;;;;;;;5077407;28;20460;-73
2023/01/01 08:02:59;;;;;;;3.60;1.40;;;;;;;;;;5077425;28;20464;-74
2023/01/01 08:05:27;;;;;;;2.77;1.50;;;;;;;;;;5069094;28;20456;-73
2023/01/01 08:07:55;;;;;;;5.23;1.60;;;;;;;;;;5057150;28;20525;-72
2023/01/01 08:10:23;;;;;;;2.77;1.10;;;;;;;;;;5057210;28;20571;-72
2023/01/01 08:12:51;;;;;;;4.23;1.30;;;;;;;;;;5060898;28;20491;-72
2023/01/01 08:15:18;;;;;;;3.10;1.40;;;;;;;;;;5070413;28;20491;-74
2023/01/01 08:17:47;;;;;;;4.53;1.27;;;;;;;;;;5072978;28;20468;-72
2023/01/01 08:20:15;;;;;;;3.10;1.40;;;;;;;;;;5070574;28;20468;-73
2023/01/01 08:22:43;;;;;;;2.70;1.10;;;;;;;;;;5057013;28;20476;-73
2023/01/01 08:25:10;;;;;;;6.57;1.70;;;;;;;;;;5076909;28;21110;-73
2023/01/01 08:27:38;;;;;;;4.47;1.60;;;;;;;;;;5073826;28;20767;-73
2023/01/01 08:30:06;;;;;;;6.83;1.20;;;;;;;;;;5059888;28;21042;-73
2023/01/01 08:32:37;;;;;;;2.80;1.00;;;;;;;;;;5073317;28;20464;-73
2023/01/01 08:35:06;;;;;;;5.13;1.00;;;;;;;;;;5069104;28;20451;-73
2023/01/01 08:37:36;;;;;;;3.77;1.10;;;;;;;;;;5077058;28;20570;-73
2023/01/01 08:40:03;;;;;;;3.63;1.40;;;;;;;;;;5056546;28;20520;-73
2023/01/01 08:42:33;;;;;;;2.23;1.10;;;;;;;;;;5075025;28;20472;-74
2023/01/01 08:45:01;;;;;;;3.13;1.20;;;;;;;;;;5076880;28;20451;-73
2023/01/01 08:47:29;;;;;;;2.63;1.10;;;;;;;;;;5075023;28;20500;-73
2023/01/01 08:49:59;;;;;;;2.97;1.33;;;;;;;;;;5056299;28;20481;-74
2023/01/01 08:52:28;;;;;;;3.23;1.53;;;;;;;;;;5068783;28;20729;-72
2023/01/01 08:54:55;;;;;;;3.10;1.00;;;;;;;;;;5057536;28;20541;-73
2023/01/01 08:57:24;;;;;;;2.13;1.40;;;;;;;;;;5057809;28;20458;-73
2023/01/01 08:59:52;;;;;;;2.13;1.03;;;;;;;;;;5070440;28;20471;-73
2023/01/01 09:02:21;;;;;;;4.23;1.13;;;;;;;;;;5059076;28;20555;-73
2023/01/01 09:04:48;;;;;;;4.60;1.13;;;;;;;;;;5063260;28;20876;-74
2023/01/01 09:07:16;;;;;;;3.97;1.23;;;;;;;;;;5063472;28;20743;-74
2023/01/01 09:09:45;;;;;;;2.47;0.93;;;;;;;;;;5068300;28;20869;-73
2023/01/01 09:12:16;;;;;;;8.93;1.20;;;;;;;;;;5058792;28;20555;-74
2023/01/01 09:14:47;;;;;;;6.30;1.43;;;;;;;;;;5060395;28;20445;-73
2023/01/01 09:17:15;;;;;;;4.43;1.20;;;;;;;;;;5057420;28;20563;-72
2023/01/01 09:19:42;;;;;;;5.33;1.57;;;;;;;;;;5057598;28;20539;-72
2023/01/01 09:22:11;;;;;;;3.73;1.00;;;;;;;;;;5056050;28;20476;-73
2023/01/01 09:24:41;;;;;;;4.43;1.30;;;;;;;;;;5055493;28;20457;-74
2023/01/01 09:27:10;;;;;;;2.37;1.07;;;;;;;;;;5072011;28;20469;-73
2023/01/01 09:29:37;;;;;;;3.93;1.40;;;;;;;;;;5064620;28;20453;-73
2023/01/01 09:32:07;;;;;;;2.57;0.90;;;;;;;;;;5062978;28;20469;-72
2023/01/01 09:34:35;;;;;;;1.80;0.77;;;;;;;;;;5063026;28;20469;-72
2023/01/01 09:37:03;;;;;;;7.00;1.37;;;;;;;;;;5071604;28;20498;-72
2023/01/01 09:39:35;;;;;;;4.63;1.80;;;;;;;;;;5072000;28;20848;-73
2023/01/01 09:42:08;;;;;;;5.33;1.23;;;;;;;;;;5069104;28;21051;-72
2023/01/01 09:44:44;;;;;;;3.00;0.70;;;;;;;;;;5055923;28;20472;-72
2023/01/01 09:47:21;;;;;;;34.97;1.87;;;;;;;;;;5064804;28;20493;-73
2023/01/01 09:49:49;;;;;;;3.63;1.20;;;;;;;;;;5056381;28;20472;-72
2023/01/01 09:52:18;;;;;;;1.80;0.90;;;;;;;;;;5064172;28;20801;-71
2023/01/01 09:54:50;;;;;;;4.93;1.07;;;;;;;;;;5059407;28;20890;-72
2023/01/01 09:57:18;;;;;;;1.90;0.90;;;;;;;;;;5057488;28;20958;-72
2023/01/01 09:59:47;;;;;;;2.50;1.10;;;;;;;;;;5071479;28;20468;-72
2023/01/01 10:02:23;;;;;;;2.47;1.30;;;;;;;;;;5075334;28;20910;-72
2023/01/01 10:04:56;;;;;;;7.43;1.20;;;;;;;;;;5078552;28;20448;-72
2023/01/01 10:07:26;;;;;;;3.43;1.00;;;;;;;;;;5077538;28;20563;-72
2023/01/01 10:09:59;;;;;;;5.00;1.00;;;;;;;;;;5079762;28;20460;-72
2023/01/01 10:12:34;;;;;;;1.73;0.63;;;;;;;;;;5063624;28;20865;-73
2023/01/01 10:15:06;;;;;;;3.60;1.10;;;;;;;;;;5066392;28;20544;-73
2023/01/01 10:17:36;;;;;;;3.90;0.87;;;;;;;;;;5058370;28;20479;-73
2023/01/01 10:20:10;;;;;;;4.60;0.70;;;;;;;;;;5059104;28;20453;-72
2023/01/01 10:22:44;;;;;;;1.80;0.70;;;;;;;;;;5067204;28;20559;-72
2023/01/01 10:25:20;;;;;;;6.20;1.77;;;;;;;;;;5062267;28;20465;-72
2023/01/01 10:27:52;;;;;;;1.63;0.90;;;;;;;;;;5058346;28;20753;-72
2023/01/01 10:30:22;;;;;;;3.83;1.33;;;;;;;;;;5063771;28;20488;-72
2023/01/01 10:32:50;;;;;;;4.10;0.80;;;;;;;;;;5067303;28;20465;-73
2023/01/01 10:35:19;;;;;;;3.50;1.03;;;;;;;;;;5075761;28;20471;-72
2023/01/01 10:37:48;;;;;;;2.40;1.10;;;;;;;;;;5078243;28;20471;-72
2023/01/01 10:40:17;;;;;;;2.47;0.80;;;;;;;;;;5066135;28;20465;-72
2023/01/01 10:43:14;;;;;;;2.70;0.97;;;;;;;;;;5063079;28;20468;-72
2023/01/01 10:45:49;;;;;;;2.23;1.00;;;;;;;;;;5067194;28;20485;-72
2023/01/01 10:48:24;;;;;;;2.53;0.67;;;;;;;;;;5076927;28;20877;-72
2023/01/01 10:50:53;;;;;;;3.90;1.60;;;;;;;;;;5075802;28;20951;-72
2023/01/01 10:53:22;;;;;;;10.20;2.13;;;;;;;;;;5078025;28;20458;-72
2023/01/01 10:55:51;;;;;;;3.10;1.10;;;;;;;;;;5078144;28;20463;-72
2023/01/01 10:58:28;;;;;;;3.30;0.90;;;;;;;;;;5076433;28;20478;-72
2023/01/01 11:01:01;;;;;;;4.57;1.37;;;;;;;;;;5076627;28;20767;-73
2023/01/01 11:03:29;;;;;;;5.40;0.97;;;;;;;;;;5077981;28;20455;-72
2023/01/01 11:06:01;;;;;;;1.37;0.60;;;;;;;;;;5068949;28;20477;-72
2023/01/01 11:08:32;;;;;;;2.67;0.80;;;;;;;;;;5058117;28;20456;-73
2023/01/01 11:11:01;;;;;;;1.77;0.60;;;;;;;;;;5055854;28;20485;-73
2023/01/01 11:13:31;;;;;;;5.87;1.40;;;;;;;;;;5053583;28;20459;-72
2023/01/01 11:16:00;;;;;;;1.97;0.60;;;;;;;;;;5055838;28;20655;-72
2023/01/01 11:18:34;;;;;;;1.80;0.80;;;;;;;;;;5054860;28;20465;-74
2023/01/01 11:21:06;;;;;;;4.23;0.90;;;;;;;;;;5053708;28;20465;-72
2023/01/01 11:23:35;;;;;;;2.43;0.70;;;;;;;;;;5054239;28;20866;-72
2023/01/01 11:26:04;;;;;;;3.10;0.93;;;;;;;;;;5054885;28;20474;-72
2023/01/01 11:28:41;;;;;;;1.80;0.80;;;;;;;;;;5057002;28;20465;-72
2023/01/01 11:31:14;;;;;;;6.80;1.73;;;;;;;;;;5061639;28;20769;-73
2023/01/01 11:33:50;;;;;;;3.13;0.73;;;;;;;;;;5064500;28;20480;-73
2023/01/01 11:36:25;;;;;;;6.10;1.60;;;;;;;;;;5063274;28;20464;-71
2023/01/01 11:39:05;;;;;;;1.80;0.80;;;;;;;;;;5066421;28;20456;-71
2023/01/01 11:41:41;;;;;;;1.90;0.87;;;;;;;;;;5057478;28;20460;-73
2023/01/01 11:44:10;;;;;;;3.97;0.90;;;;;;;;;;5059553;28;20457;-72
2023/01/01 11:46:58;;;;;;;4.57;1.27;;;;;;;;;;5056286;28;20461;-72
2023/01/01 11:49:30;;;;;;;1.70;0.60;;;;;;;;;;5056506;28;20824;-73
2023/01/01 11:51:58;;;;;;;2.13;0.93;;;;;;;;;;5056184;28;20489;-73
2023/01/01 11:54:31;;;;;;;5.27;1.27;;;;;;;;;;5056761;28;20484;-72
2023/01/01 11:57:03;;;;;;;2.80;1.30;;;;;;;;;;5056143;28;20492;-72
2023/01/01 11:59:41;;;;;;;8.17;1.70;;;;;;;;;;5064061;28;20530;-72
2023/01/01 12:02:14;;;;;;;2.63;0.90;;;;;;;;;;5057070;28;20449;-72
2023/01/01 12:04:46;;;;;;;2.23;0.63;;;;;;;;;;5060041;28;20473;-73
2023/01/01 12:07:18;;;;;;;2.50;1.07;;;;;;;;;;5063374;28;20514;-73
2023/01/01 12:09:49;;;;;;;4.00;1.00;;;;;;;;;;5057014;28;20731;-72
2023/01/01 12:12:23;;;;;;;2.10;1.30;;;;;;;;;;5061022;28;21136;-73
2023/01/01 12:15:03;;;;;;;2.20;1.27;;;;;;;;;;5057101;28;20468;-72
2023/01/01 12:17:36;;;;;;;3.33;0.70;;;;;;;;;;5059461;28;20591;-73
2023/01/01 12:20:07;;;;;;;5.40;0.93;;;;;;;;;;5063027;28;20468;-72
2023/01/01 12:22:35;;;;;;;3.63;0.70;;;;;;;;;;5056463;28;21027;-72
2023/01/01 12:25:04;;;;;;;2.10;0.70;;;;;;;;;;5055170;28;20518;-72
2023/01/01 12:27:45;;;;;;;6.07;0.90;;;;;;;;;;5063539;28;20480;-72
2023/01/01 12:30:29;;;;;;;3.40;0.77;;;;;;;;;;5068668;28;20883;-71
2023/01/01 12:33:20;;;;;;;3.13;1.17;;;;;;;;;;5054853;28;20484;-73
2023/01/01 12:35:57;;;;;;;6.90;0.80;;;;;;;;;;5056226;28;20467;-73
2023/01/01 12:38:35;;;;;;;9.00;1.23;;;;;;;;;;5054308;28;20460;-72
2023/01/01 12:41:07;;;;;;;6.33;1.47;;;;;;;;;;5055625;28;20456;-72
2023/01/01 12:43:41;;;;;;;2.30;0.90;;;;;;;;;;5055207;28;20467;-72
2023/01/01 12:46:27;;;;;;;3.77;1.23;;;;;;;;;;5080020;28;20456;-72
2023/01/01 12:49:08;;;;;;;3.40;1.10;;;;;;;;;;5054059;28;20472;-72
2023/01/01 12:51:42;;;;;;;2.30;0.80;;;;;;;;;;5054588;28;21103;-72
2023/01/01 12:54:19;;;;;;;2.77;0.90;;;;;;;;;;5055824;28;20940;-72
2023/01/01 12:56:51;;;;;;;2.90;0.97;;;;;;;;;;5058404;28;20495;-74
2023/01/01 12:59:24;;;;;;;6.87;1.30;;;;;;;;;;5058611;28;20479;-73
2023/01/01 13:01:55;;;;;;;2.90;1.10;;;;;;;;;;5059704;28;20484;-73
2023/01/01 13:04:26;;;;;;;2.27;0.70;;;;;;;;;;5058048;28;20881;-72
2023/01/01 13:07:02;;;;;;;4.47;0.97;;;;;;;;;;5070505;28;20452;-72
2023/01/01 13:09:44;;;;;;;3.10;0.80;;;;;;;;;;5057629;28;20464;-72
2023/01/01 13:12:13;;;;;;;3.53;0.87;;;;;;;;;;5068938;28;20480;-72
2023/01/01 13:14:41;;;;;;;3.20;1.27;;;;;;;;;;5061198;28;20469;-73
2023/01/01 13:17:18;;;;;;;3.03;0.70;;;;;;;;;;5056038;28;20453;-73
2023/01/01 13:19:50;;;;;;;3.73;0.83;;;;;;;;;;5056868;28;20471;-73
2023/01/01 13:22:47;;;;;;;4.80;1.77;;;;;;;;;;5061548;28;20889;-73
2023/01/01 13:25:27;;;;;;;8.33;1.30;;;;;;;;;;5053452;28;20519;-72
2023/01/01 13:28:16;;;;;;;4.27;0.90;;;;;;;;;;5053942;28;20552;-73
2023/01/01 13:30:50;;;;;;;3.40;0.80;;;;;;;;;;5059873;28;21062;-72
2023/01/01 13:33:22;;;;;;;6.27;1.70;;;;;;;;;;5068286;28;20549;-73
2023/01/01 13:36:09;;;;;;;4.53;0.93;;;;;;;;;;5059513;28;20472;-73
2023/01/01 13:38:55;;;;;;;6.50;2.07;;;;;;;;;;5061507;28;20483;-74
2023/01/01 13:41:30;;;;;;;5.00;1.27;;;;;;;;;;5058214;28;20455;-73
2023/01/01 13:44:12;;;;;;;3.40;1.43;;;;;;;;;;5066024;28;20463;-74
2023/01/01 13:46:50;;;;;;;8.20;3.53;;;;;;;;;;5076031;28;20482;-74
2023/01/01 13:49:21;;;;;;;4.03;1.20;;;;;;;;;;5058502;28;20473;-73
2023/01/01 13:52:06;;;;;;;12.37;2.47;;;;;;;;;;5059237;28;20547;-73
2023/01/01 13:54:42;;;;;;;6.77;1.00;;;;;;;;;;5063533;28;20551;-73
2023/01/01 13:57:21;;;;;;;3.07;0.80;;;;;;;;;;5058919;28;20465;-73
2023/01/01 14:00:00;;;;;;;4.90;1.00;;;;;;;;;;5057808;28;20465;-74
2023/01/01 14:02:29;;;;;;;2.50;0.90;;;;;;;;;;5058450;28;20467;-73
2023/01/01 14:05:00;;;;;;;4.63;2.43;;;;;;;;;;5058502;28;20477;-73
2023/01/01 14:07:33;;;;;;;2.80;0.87;;;;;;;;;;5057270;28;20469;-73
2023/01/01 14:10:34;;;;;;;3.57;0.97;;;;;;;;;;5058742;28;20870;-72
2023/01/01 14:13:18;;;;;;;8.43;1.57;;;;;;;;;;4996236;28;20494;-72
2023/01/01 14:15:52;;;;;;;7.23;1.60;;;;;;;;;;4997234;28;20530;-72
2023/01/01 14:18:20;;;;;;;2.47;0.90;;;;;;;;;;5033389;28;20491;-72
2023/01/01 14:20:50;;;;;;;4.90;1.10;;;;;;;;;;5057678;28;20969;-72
2023/01/01 14:23:23;;;;;;;4.03;1.33;;;;;;;;;;5057718;28;20461;-72
2023/01/01 14:25:51;;;;;;;3.97;1.70;;;;;;;;;;5058509;28;20839;-72
2023/01/01 14:28:22;;;;;;;5.63;1.27;;;;;;;;;;5057923;28;20460;-72
2023/01/01 14:30:52;;;;;;;4.77;1.03;;;;;;;;;;5057859;28;20459;-73
2023/01/01 14:33:23;;;;;;;5.90;1.67;;;;;;;;;;5056341;28;20485;-72
2023/01/01 14:35:54;;;;;;;8.70;2.60;;;;;;;;;;5057615;28;20453;-72
2023/01/01 14:38:29;;;;;;;10.13;2.60;;;;;;;;;;5059009;28;20786;-72
2023/01/01 14:41:02;;;;;;;4.90;1.40;;;;;;;;;;5069539;28;20440;-73
2023/01/01 14:43:31;;;;;;;7.87;2.73;;;;;;;;;;5075094;28;20453;-73
2023/01/01 14:45:58;;;;;;;8.40;2.40;;;;;;;;;;5066841;28;20438;-73
2023/01/01 14:48:32;;;;;;;3.53;1.20;;;;;;;;;;5075595;28;20443;-74
2023/01/01 14:50:59;;;;;;;3.57;1.50;;;;;;;;;;5076699;28;20466;-73
2023/01/01 14:53:30;;;;;;;5.83;1.93;;;;;;;;;;5069739;28;20488;-73
2023/01/01 14:55:58;;;;;;;3.13;1.20;;;;;;;;;;5057383;28;20456;-73
2023/01/01 14:58:27;;;;;;;4.60;1.30;;;;;;;;;;5065397;28;20454;-73
2023/01/01 15:01:14;;;;;;;5.53;1.10;;;;;;;;;;5056701;28;20450;-73
2023/01/01 15:03:42;;;;;;;4.17;1.20;;;;;;;;;;5057042;28;20553;-73
2023/01/01 15:06:16;;;;;;;4.07;1.20;;;;;;;;;;5055815;28;20457;-73
2023/01/01 15:08:51;;;;;;;13.13;1.77;;;;;;;;;;5067202;28;20463;-74
2023/01/01 15:11:22;;;;;;;5.77;1.57;;;;;;;;;;5062960;28;20448;-74